Kleinaitingen, Germany

8:47 PM CEST on July 24, 2017 (GMT +0200)
Bahnhofstraße | | Change Station

Elev 1768 ft 48.22 °N, 10.80 °E | Updated 8 minutes ago

Mostly Cloudy
Mostly Cloudy
59.2 °F
Feels Like 59.2 °F
N
6.8
Wind Variable Wind from WSW
Gusts 12.4 mph

Today
High -- | Low -- °F
--% Chance of Precip.
Yesterday
High -- | Low -- °F
Precip. -- in
Pressure 29.86 in
Visibility 6.2 miles
Clouds Few 2000 ft
Mostly Cloudy 3500 ft
Mostly Cloudy 7000 ft
Dew Point 49 °F
Humidity 68%
Rainfall 0.03 in
Snow Depth Not available.
5:42 AM 9:03 PM
Waxing Crescent, 3% visible
METAR ETSA 241820Z 27019KT 9999 FEW020CB BKN035 BKN070 14/08 Q1011 BLU
Pressure 29.86 in
Visibility 6.2 miles
Clouds Few 2000 ft
Mostly Cloudy 3500 ft
Mostly Cloudy 7000 ft
Dew Point 49 °F
Humidity 68%
Rainfall 0.03 in
Snow Depth Not available.
5:42 AM 9:03 PM
Waxing Crescent, 3% visible
METAR ETSA 241820Z 27019KT 9999 FEW020CB BKN035 BKN070 14/08 Q1011 BLU

Get Severe Weather Alerts

Thanks for signing up!

Be on the lookout for a verification email in your inbox.

You'll start receiving the daily forecast at 6 AM.

×

10-Day Weather Forecast

×

Almanac

Astronomy

Jul. 24, 2017 Rise Set
Actual Time
Civil Twilight
Nautical Twilight
Astronomical Twilight
Moon
Length of Visible Light
Length of Day
Tomorrow will be .
, % of the Moon is Illuminated

Today's Extremes

Country Highs Country Lows

Community

WunderPhotos

Category 6

Welcome to Category 6. This is the collective home for Weather Underground's featured writeups by Dr. Jeff Masters (right), Bob Henson (left), Chris Burt, and other regular contributors.

Nearby

Air Quality

  Air Quality AQ Index Pollutant
Not available.

Snow Depth

Station Depth Elevation

Earthquake Activity

City Distance Mag. Time & Date
Minimum magnitude displayed is 2.5.

Coastal Water Temperatures

Place Temperature

Stations

Nearby Weather Stations

Station Location Temp. Windchill Dew Point Humidity Wind Precip. Elev Updated Type